Time;durP1;ratioP1;P1;durP2;ratioP2;P2;SDS_P1;SDS_P2;PMS_P1;PMS_P2;Temp;Humidity;BMP_temperature;BMP_pressure;BME280_temperature;BME280_humidity;BME280_pressure;Samples;Min_cycle;Max_cycle;Signal;HPM_P1;HPM_P2
2021/12/21 00:00:55;;;;;;;25.77;10.85;;;;;;;-1.00;100.00;102887.38;4972978;28;20058;-73
2021/12/21 00:03:23;;;;;;;21.25;10.43;;;;;;;-0.99;100.00;102889.16;4972274;28;20066;-74
2021/12/21 00:05:51;;;;;;;20.80;11.20;;;;;;;-0.98;100.00;102893.59;4971169;28;20582;-73
2021/12/21 00:08:19;;;;;;;26.25;11.02;;;;;;;-0.99;100.00;102891.78;4971816;28;20471;-74
2021/12/21 00:11:08;;;;;;;22.92;10.65;;;;;;;-0.98;100.00;102894.47;4971927;28;20042;-73
2021/12/21 00:13:46;;;;;;;20.33;10.68;;;;;;;-1.01;100.00;102899.56;4969820;28;20294;-73
2021/12/21 00:16:29;;;;;;;23.77;11.48;;;;;;;-1.09;100.00;102893.09;4968262;28;20047;-73
2021/12/21 00:19:10;;;;;;;20.27;10.63;;;;;;;-1.16;100.00;102893.59;4973737;28;20106;-73
2021/12/21 00:21:41;;;;;;;25.00;11.68;;;;;;;-1.18;100.00;102898.75;4969559;28;20594;-73
2021/12/21 00:24:13;;;;;;;22.95;10.90;;;;;;;-1.24;100.00;102897.53;4973925;28;20534;-73
2021/12/21 00:26:42;;;;;;;21.65;10.07;;;;;;;-1.28;100.00;102888.63;4971483;28;20141;-74
2021/12/21 00:29:10;;;;;;;23.10;10.25;;;;;;;-1.34;100.00;102881.38;4973988;28;20047;-73
2021/12/21 00:31:38;;;;;;;31.38;11.98;;;;;;;-1.35;100.00;102889.16;4969328;28;20082;-73
2021/12/21 00:34:07;;;;;;;23.10;10.82;;;;;;;-1.38;100.00;102884.69;4969386;28;20143;-74
2021/12/21 00:36:37;;;;;;;16.33;9.77;;;;;;;-1.43;100.00;102882.63;4971562;28;20081;-74
2021/12/21 00:39:12;;;;;;;23.58;10.93;;;;;;;-1.47;100.00;102878.09;4973562;28;20058;-73
2021/12/21 00:41:42;;;;;;;27.10;11.35;;;;;;;-1.56;100.00;102878.53;4970020;28;20058;-73
2021/12/21 00:44:11;;;;;;;21.40;10.30;;;;;;;-1.60;100.00;102872.25;4973770;28;20108;-73
2021/12/21 00:46:39;;;;;;;30.92;10.75;;;;;;;-1.59;100.00;102871.41;4970630;28;20161;-73
2021/12/21 00:49:15;;;;;;;29.58;10.45;;;;;;;-1.62;100.00;102875.59;4971828;28;20050;-73
2021/12/21 00:51:44;;;;;;;22.42;11.00;;;;;;;-1.70;100.00;102876.09;4965933;28;20105;-74
2021/12/21 00:54:13;;;;;;;31.38;11.25;;;;;;;-1.71;100.00;102870.78;4972731;28;20113;-72
2021/12/21 00:56:42;;;;;;;26.23;10.65;;;;;;;-1.78;100.00;102866.06;4969493;28;20133;-75
2021/12/21 00:59:10;;;;;;;25.65;10.68;;;;;;;-1.86;100.00;102870.91;4971326;28;20097;-75
2021/12/21 01:01:41;;;;;;;23.67;9.38;;;;;;;-1.89;100.00;102875.97;4971847;28;20134;-74
2021/12/21 01:04:18;;;;;;;24.05;9.73;;;;;;;-1.91;100.00;102869.75;4970086;28;20133;-73
2021/12/21 01:06:59;;;;;;;24.08;9.82;;;;;;;-1.97;100.00;102872.97;4971018;28;20711;-74
2021/12/21 01:09:55;;;;;;;19.77;9.30;;;;;;;-1.94;100.00;102872.22;4972385;28;20078;-74
2021/12/21 01:12:38;;;;;;;16.55;8.55;;;;;;;-1.97;100.00;102867.75;4966543;28;20110;-74
2021/12/21 01:15:17;;;;;;;15.65;8.90;;;;;;;-1.99;100.00;102864.16;4971091;28;20161;-74
2021/12/21 01:17:53;;;;;;;20.65;9.13;;;;;;;-2.03;100.00;102856.06;4969636;28;20256;-75
2021/12/21 01:20:30;;;;;;;18.48;8.32;;;;;;;-2.01;100.00;102860.56;4971146;28;20137;-73
2021/12/21 01:23:21;;;;;;;24.17;9.95;;;;;;;-2.08;100.00;102851.50;4971478;28;20586;-76
2021/12/21 01:25:55;;;;;;;22.02;10.48;;;;;;;-2.09;100.00;102862.75;4971034;28;20058;-75
2021/12/21 01:28:34;;;;;;;16.73;8.30;;;;;;;-2.15;100.00;102859.81;4972778;28;20061;-75
2021/12/21 01:31:15;;;;;;;18.08;9.45;;;;;;;-2.17;100.00;102856.22;4971420;28;20081;-73
2021/12/21 01:34:02;;;;;;;22.13;9.38;;;;;;;-2.16;100.00;102854.50;4972145;28;20297;-73
2021/12/21 01:36:37;;;;;;;18.25;8.95;;;;;;;-2.19;100.00;102851.75;4971307;28;20055;-73
2021/12/21 01:39:14;;;;;;;24.27;10.00;;;;;;;-2.21;100.00;102854.28;4969880;28;20161;-75
2021/12/21 01:41:50;;;;;;;18.33;8.65;;;;;;;-2.20;100.00;102858.69;4969891;28;20149;-73
2021/12/21 01:44:37;;;;;;;20.30;9.57;;;;;;;-2.21;100.00;102855.97;4969893;28;20065;-75
2021/12/21 01:49:51;;;;;;;19.52;8.98;;;;;;;-2.31;100.00;102858.13;4968549;28;20066;-75
2021/12/21 01:52:22;;;;;;;23.75;10.18;;;;;;;-2.28;100.00;102860.91;4968768;28;20141;-73
2021/12/21 01:54:51;;;;;;;20.83;10.07;;;;;;;-2.35;100.00;102852.63;4971114;28;20422;-75
2021/12/21 01:57:19;;;;;;;18.75;8.63;;;;;;;-2.36;100.00;102854.38;4970686;28;20106;-75
2021/12/21 01:59:50;;;;;;;20.48;10.30;;;;;;;-2.38;100.00;102850.78;4967566;28;20170;-75
2021/12/21 02:02:20;;;;;;;22.90;10.20;;;;;;;-2.44;100.00;102847.81;4971244;28;20540;-73
2021/12/21 02:04:48;;;;;;;18.30;8.52;;;;;;;-2.51;100.00;102838.75;4967200;28;20177;-73
2021/12/21 02:07:16;;;;;;;20.80;9.63;;;;;;;-2.49;100.00;102849.28;4966892;28;20057;-73
2021/12/21 02:09:44;;;;;;;23.98;10.20;;;;;;;-2.49;100.00;102842.34;4970911;28;20054;-75
2021/12/21 02:12:14;;;;;;;15.70;8.18;;;;;;;-2.50;100.00;102842.28;4967251;28;20670;-73
2021/12/21 02:14:43;;;;;;;17.67;8.88;;;;;;;-2.56;100.00;102832.38;4971799;28;20117;-73
2021/12/21 02:17:37;;;;;;;23.13;9.15;;;;;;;-2.60;100.00;102827.81;4971336;28;20093;-75
2021/12/21 02:20:17;;;;;;;21.27;9.30;;;;;;;-2.62;100.00;102839.91;4968442;28;20133;-73
2021/12/21 02:22:51;;;;;;;19.27;8.82;;;;;;;-2.61;100.00;102841.69;4968781;28;20492;-75
2021/12/21 02:25:37;;;;;;;18.20;9.55;;;;;;;-2.66;100.00;102830.97;4967703;28;20142;-74
2021/12/21 02:28:31;;;;;;;20.63;9.18;;;;;;;-2.72;100.00;102833.28;4968396;28;20097;-74
2021/12/21 02:30:59;;;;;;;17.17;9.23;;;;;;;-2.68;100.00;102829.13;4967687;28;20483;-74
2021/12/21 02:33:28;;;;;;;20.45;9.55;;;;;;;-2.76;100.00;102836.53;4968267;28;20166;-73
2021/12/21 02:35:58;;;;;;;21.38;8.75;;;;;;;-2.79;100.00;102836.38;4966850;28;20470;-74
2021/12/21 02:38:26;;;;;;;24.38;9.48;;;;;;;-2.77;100.00;102833.84;4967497;28;20106;-73
2021/12/21 02:40:54;;;;;;;24.05;9.88;;;;;;;-2.83;100.00;102837.00;4968597;28;20396;-73
2021/12/21 02:43:22;;;;;;;24.38;9.25;;;;;;;-2.89;100.00;102829.75;4967427;28;20082;-74
2021/12/21 02:45:50;;;;;;;18.52;10.70;;;;;;;-2.89;100.00;102829.75;4970551;28;20113;-74
2021/12/21 02:48:18;;;;;;;23.60;9.80;;;;;;;-2.92;100.00;102839.13;4968146;28;20117;-74
2021/12/21 02:50:46;;;;;;;17.73;8.85;;;;;;;-2.94;100.00;102830.31;4970293;28;20054;-74
2021/12/21 02:53:15;;;;;;;23.52;9.00;;;;;;;-2.96;100.00;102842.38;4965646;28;20554;-74
2021/12/21 02:55:43;;;;;;;20.10;10.18;;;;;;;-2.90;100.00;102845.34;4969693;28;20147;-74
2021/12/21 02:58:11;;;;;;;21.50;8.18;;;;;;;-2.95;100.00;102833.72;4966888;28;20212;-74
2021/12/21 03:00:39;;;;;;;32.20;10.05;;;;;;;-2.85;100.00;102834.31;4968178;28;20463;-74
2021/12/21 03:03:12;;;;;;;25.67;10.75;;;;;;;-2.93;100.00;102839.94;4967547;28;20136;-74
2021/12/21 03:05:45;;;;;;;;;;;;;;;-2.90;100.00;102837.50;4970558;28;20061;-74
2021/12/21 03:08:17;;;;;;;19.00;9.18;;;;;;;-2.91;100.00;102835.69;4966835;28;19934;-74
2021/12/21 03:11:01;;;;;;;19.80;8.25;;;;;;;-2.94;100.00;102835.53;4971881;28;20137;-74
2021/12/21 03:16:14;;;;;;;24.92;9.23;;;;;;;-3.05;100.00;102835.84;4975156;28;20112;-74
2021/12/21 03:18:43;;;;;;;17.65;9.23;;;;;;;-3.06;100.00;102831.44;4972672;28;20161;-74
2021/12/21 03:21:10;;;;;;;18.20;9.85;;;;;;;-3.07;100.00;102837.44;4971210;28;20067;-73
2021/12/21 03:23:40;;;;;;;20.10;9.85;;;;;;;-3.13;100.00;102831.91;4972837;28;20089;-74
2021/12/21 03:26:09;;;;;;;22.75;9.75;;;;;;;-3.12;100.00;102836.28;4971592;28;20499;-73
2021/12/21 03:28:38;;;;;;;18.77;9.20;;;;;;;-3.13;100.00;102837.13;4972391;28;20138;-73
2021/12/21 03:31:06;;;;;;;21.70;9.90;;;;;;;-3.14;100.00;102834.44;4973215;28;20073;-74
2021/12/21 03:33:35;;;;;;;17.95;9.77;;;;;;;-3.18;100.00;102830.75;4972161;28;20046;-73
2021/12/21 03:36:04;;;;;;;27.65;10.07;;;;;;;-3.10;100.00;102832.09;4971858;28;20054;-73
2021/12/21 03:38:33;;;;;;;19.30;9.32;;;;;;;-3.16;100.00;102826.50;4975367;28;20050;-74
2021/12/21 03:41:06;;;;;;;18.00;9.23;;;;;;;-3.18;100.00;102828.13;4971212;28;20495;-74
2021/12/21 03:43:36;;;;;;;26.17;10.23;;;;;;;-3.17;100.00;102827.31;4973946;28;20055;-74
2021/12/21 03:46:09;;;;;;;19.88;9.65;;;;;;;-3.22;100.00;102832.28;4972796;28;20161;-74
2021/12/21 03:48:40;;;;;;;16.48;9.35;;;;;;;-3.21;100.00;102825.34;4973362;28;20079;-73
2021/12/21 03:51:08;;;;;;;20.33;8.65;;;;;;;-3.20;100.00;102827.16;4970831;28;20058;-74
2021/12/21 03:53:37;;;;;;;20.67;9.13;;;;;;;-3.22;100.00;102821.84;4969778;28;20066;-73
2021/12/21 03:56:24;;;;;;;19.98;9.27;;;;;;;-3.28;100.00;102820.59;4971089;28;20061;-73
2021/12/21 03:58:53;;;;;;;21.58;9.65;;;;;;;-3.29;100.00;102826.63;4971997;28;20105;-74
2021/12/21 04:01:21;;;;;;;28.27;10.63;;;;;;;-3.34;100.00;102820.25;4975028;28;20086;-73
2021/12/21 04:03:49;;;;;;;19.48;8.10;;;;;;;-3.29;100.00;102808.34;4972805;28;20994;-74
2021/12/21 04:06:17;;;;;;;17.65;9.00;;;;;;;-3.21;100.00;102801.84;4971365;28;20058;-73
2021/12/21 04:08:45;;;;;;;22.85;10.32;;;;;;;-3.24;100.00;102799.94;4973005;28;20124;-73
2021/12/21 04:11:13;;;;;;;19.88;10.10;;;;;;;-3.20;100.00;102801.94;4971432;28;20062;-74
2021/12/21 04:13:41;;;;;;;20.63;9.20;;;;;;;-3.24;100.00;102801.66;4973050;28;20085;-75
2021/12/21 04:16:10;;;;;;;21.83;10.30;;;;;;;-3.24;100.00;102802.56;4970275;28;20082;-75
2021/12/21 04:18:39;;;;;;;19.05;8.95;;;;;;;-3.19;100.00;102801.09;4974441;28;20587;-75
2021/12/21 04:21:11;;;;;;;21.15;9.55;;;;;;;-3.25;100.00;102798.16;4972593;28;20054;-75
2021/12/21 04:23:40;;;;;;;22.80;9.57;;;;;;;-3.28;100.00;102794.50;4969740;28;20058;-73
2021/12/21 04:26:09;;;;;;;20.52;9.18;;;;;;;-3.28;100.00;102791.88;4970727;28;20113;-73
2021/12/21 04:28:37;;;;;;;30.45;11.00;;;;;;;-3.25;100.00;102786.81;4971304;28;20057;-73
2021/12/21 04:31:07;;;;;;;27.60;10.77;;;;;;;-3.30;100.00;102794.41;4972153;28;20506;-74
2021/12/21 04:33:38;;;;;;;21.58;10.52;;;;;;;-3.35;100.00;102793.25;4969841;28;20229;-74
2021/12/21 04:36:07;;;;;;;22.00;10.55;;;;;;;-3.37;100.00;102789.66;4971830;28;20090;-74
2021/12/21 04:38:39;;;;;;;29.13;10.88;;;;;;;-3.42;100.00;102797.22;4971782;28;20061;-75
2021/12/21 04:41:15;;;;;;;16.73;8.45;;;;;;;-3.41;100.00;102801.59;4971125;28;20058;-74
2021/12/21 04:43:43;;;;;;;17.25;9.38;;;;;;;-3.40;100.00;102792.09;4970512;28;20088;-74
2021/12/21 04:46:11;;;;;;;18.63;9.07;;;;;;;-3.41;100.00;102792.88;4972830;28;20132;-74
2021/12/21 04:48:41;;;;;;;16.42;8.80;;;;;;;-3.40;100.00;102792.09;4969640;28;20536;-75
2021/12/21 04:51:09;;;;;;;19.20;9.30;;;;;;;-3.40;100.00;102792.97;4972272;28;20062;-73
2021/12/21 04:53:37;;;;;;;21.90;10.13;;;;;;;-3.39;100.00;102794.78;4970030;28;20100;-74
2021/12/21 04:56:06;;;;;;;21.05;10.20;;;;;;;-3.43;100.00;102798.03;4971741;28;20152;-74
2021/12/21 04:58:36;;;;;;;29.55;10.75;;;;;;;-3.53;100.00;102786.97;4969589;28;20144;-74
2021/12/21 05:01:04;;;;;;;22.45;10.73;;;;;;;-3.58;100.00;102787.59;4971319;28;20153;-73
2021/12/21 05:03:33;;;;;;;21.50;9.75;;;;;;;-3.53;100.00;102790.47;4971772;28;20119;-73
2021/12/21 05:06:02;;;;;;;23.23;9.48;;;;;;;-3.57;100.00;102789.41;4973301;28;20061;-74
2021/12/21 05:08:34;;;;;;;22.17;10.13;;;;;;;-3.54;100.00;102790.38;4972128;28;20251;-74
2021/12/21 05:11:04;;;;;;;17.48;8.52;;;;;;;-3.62;100.00;102793.47;4971745;28;20187;-74
2021/12/21 05:13:37;;;;;;;24.05;10.25;;;;;;;-3.60;100.00;102786.63;4969368;28;20058;-74
2021/12/21 05:16:06;;;;;;;25.50;10.00;;;;;;;-3.67;100.00;102784.47;4972743;28;20070;-74
2021/12/21 05:18:35;;;;;;;20.20;8.88;;;;;;;-3.64;100.00;102783.78;4967553;28;20081;-73
2021/12/21 05:21:05;;;;;;;19.50;10.57;;;;;;;-3.69;100.00;102778.28;4972009;28;20074;-73
2021/12/21 05:23:33;;;;;;;16.40;8.38;;;;;;;-3.70;100.00;102776.47;4968563;28;20067;-73
2021/12/21 05:26:01;;;;;;;20.70;9.25;;;;;;;-3.67;100.00;102781.88;4971228;28;20424;-74
2021/12/21 05:28:29;;;;;;;21.77;8.63;;;;;;;-3.64;100.00;102782.06;4970710;28;20073;-73
2021/12/21 05:30:57;;;;;;;16.42;8.88;;;;;;;-3.70;100.00;102786.03;4969096;28;20058;-73
2021/12/21 05:33:27;;;;;;;24.17;11.23;;;;;;;-3.73;100.00;102785.84;4969320;28;20129;-73
2021/12/21 05:35:55;;;;;;;19.52;10.48;;;;;;;-3.76;100.00;102794.41;4968355;28;20158;-73
2021/12/21 05:38:30;;;;;;;23.73;10.30;;;;;;;-3.79;100.00;102789.00;4970951;28;20277;-73
2021/12/21 05:41:01;;;;;;;18.30;9.20;;;;;;;-3.72;100.00;102785.03;4969144;28;20059;-73
2021/12/21 05:43:30;;;;;;;18.40;10.23;;;;;;;-3.85;100.00;102786.91;4968618;28;20391;-73
2021/12/21 05:45:58;;;;;;;16.00;9.23;;;;;;;-3.79;100.00;102789.00;4966528;28;20304;-73
2021/12/21 05:48:25;;;;;;;28.60;10.55;;;;;;;-3.82;100.00;102787.09;4969050;28;20055;-73
2021/12/21 05:50:53;;;;;;;16.08;9.30;;;;;;;-3.88;100.00;102788.44;4968763;28;20566;-73
2021/12/21 05:53:21;;;;;;;20.30;10.75;;;;;;;-3.86;100.00;102794.69;4969392;28;20088;-73
2021/12/21 05:55:50;;;;;;;20.33;10.85;;;;;;;-3.91;100.00;102783.97;4971059;28;20057;-73
2021/12/21 05:58:18;;;;;;;17.67;8.63;;;;;;;-3.96;100.00;102788.03;4968787;28;20051;-73
2021/12/21 06:00:46;;;;;;;18.85;9.63;;;;;;;-3.90;100.00;102790.97;4968752;28;20062;-73
2021/12/21 06:03:14;;;;;;;22.73;11.45;;;;;;;-3.94;100.00;102783.78;4970698;28;20124;-73
2021/12/21 06:05:43;;;;;;;25.00;10.57;;;;;;;-3.97;100.00;102791.44;4968543;28;20062;-73
2021/12/21 06:08:11;;;;;;;22.83;10.50;;;;;;;-4.03;100.00;102799.78;4970364;28;20055;-73
2021/12/21 06:10:42;;;;;;;21.45;9.55;;;;;;;-4.05;100.00;102798.81;4969450;28;20066;-73
2021/12/21 06:13:38;;;;;;;25.98;10.68;;;;;;;-4.09;100.00;102799.41;4969588;28;20058;-73
2021/12/21 06:16:26;;;;;;;18.25;9.95;;;;;;;-4.06;100.00;102796.13;4971424;28;20569;-73
2021/12/21 06:27:20;;;;;;;22.40;10.65;;;;;;;-4.09;100.00;102788.09;4966636;28;21572;-73
2021/12/21 06:29:50;;;;;;;21.15;11.82;;;;;;;-4.09;100.00;102788.09;4972002;28;20057;-73
2021/12/21 06:32:18;;;;;;;19.77;10.73;;;;;;;-4.13;100.00;102794.84;4969994;28;20162;-73
2021/12/21 06:34:46;;;;;;;18.33;10.13;;;;;;;-4.09;100.00;102793.31;4970909;28;20050;-73
2021/12/21 06:37:15;;;;;;;26.40;11.05;;;;;;;-4.17;100.00;102790.25;4967837;28;20058;-73
2021/12/21 06:39:43;;;;;;;20.83;11.57;;;;;;;-4.07;100.00;102784.78;4970647;28;20089;-73
2021/12/21 06:42:13;;;;;;;20.38;10.45;;;;;;;-4.06;100.00;102783.97;4970518;28;20530;-73
2021/12/21 06:44:44;;;;;;;16.50;10.68;;;;;;;-4.10;100.00;102804.53;4967952;28;20069;-73
2021/12/21 06:52:46;;;;;;;20.00;11.20;;;;;;;-4.16;100.00;102797.28;4969304;28;20054;-73
2021/12/21 06:55:14;;;;;;;21.15;10.45;;;;;;;-4.13;100.00;102793.13;4969852;28;20580;-73
2021/12/21 06:57:43;;;;;;;21.92;10.65;;;;;;;-4.15;100.00;102797.38;4968425;28;20062;-74
2021/12/21 07:00:17;;;;;;;25.77;11.70;;;;;;;-4.20;100.00;102801.41;4970425;28;20054;-73
2021/12/21 07:02:46;;;;;;;21.17;10.32;;;;;;;-4.17;100.00;102798.06;4969821;28;20280;-73
2021/12/21 07:05:15;;;;;;;21.95;11.55;;;;;;;-4.22;100.00;102789.06;4968954;28;20086;-73
2021/12/21 07:07:44;;;;;;;23.42;11.02;;;;;;;-4.20;100.00;102793.59;4971350;28;20055;-73
2021/12/21 07:10:21;;;;;;;23.23;10.80;;;;;;;-4.20;100.00;102797.91;4969856;28;20600;-73
2021/12/21 07:18:29;;;;;;;22.83;11.80;;;;;;;-4.27;100.00;102798.31;4968912;28;20090;-73
2021/12/21 07:20:59;;;;;;;20.75;11.93;;;;;;;-4.26;100.00;102798.41;4968290;28;20063;-73
2021/12/21 07:23:28;;;;;;;23.27;11.40;;;;;;;-4.30;100.00;102798.16;4969967;28;20448;-73
2021/12/21 07:25:56;;;;;;;26.80;11.60;;;;;;;-4.36;100.00;102801.28;4966701;28;20066;-73
2021/12/21 07:28:24;;;;;;;25.27;11.73;;;;;;;-4.32;100.00;102801.56;4971016;28;20076;-73
2021/12/21 07:30:52;;;;;;;20.17;11.02;;;;;;;-4.35;100.00;102803.09;4966729;28;20057;-73
2021/12/21 07:33:20;;;;;;;19.60;10.73;;;;;;;-4.39;100.00;102808.91;4971362;28;20055;-73
2021/12/21 07:35:49;;;;;;;38.22;12.77;;;;;;;-4.39;100.00;102812.44;4966849;28;20223;-73
2021/12/21 07:38:22;;;;;;;25.05;12.25;;;;;;;-4.41;100.00;102805.31;4965932;28;20129;-73
2021/12/21 07:40:50;;;;;;;25.30;12.18;;;;;;;-4.35;100.00;102809.19;4970039;28;20180;-73
2021/12/21 07:43:17;;;;;;;24.58;11.25;;;;;;;-4.37;100.00;102808.22;4968500;28;20058;-73
2021/12/21 07:45:45;;;;;;;23.77;11.77;;;;;;;-4.41;100.00;102808.84;4966426;28;20078;-73
2021/12/21 07:48:13;;;;;;;30.35;13.05;;;;;;;-4.35;100.00;102798.78;4967466;28;20086;-74
2021/12/21 07:50:42;;;;;;;23.60;11.82;;;;;;;-4.30;100.00;102796.44;4966895;28;20051;-72
2021/12/21 07:53:12;;;;;;;23.67;11.75;;;;;;;-4.34;100.00;102792.75;4968553;28;20058;-73
2021/12/21 07:55:39;;;;;;;24.45;11.57;;;;;;;-4.36;100.00;102799.59;4965571;28;20070;-73
2021/12/21 07:58:09;;;;;;;28.27;12.18;;;;;;;-4.39;100.00;102804.63;4970923;28;20058;-72
2021/12/21 08:00:37;;;;;;;25.25;11.35;;;;;;;-4.39;100.00;102809.84;4967312;28;20066;-72
2021/12/21 08:03:06;;;;;;;27.13;12.50;;;;;;;-4.38;100.00;102815.94;4966145;28;20164;-73
2021/12/21 08:05:35;;;;;;;25.27;11.73;;;;;;;-4.37;100.00;102816.03;4968878;28;20495;-73
2021/12/21 08:08:12;;;;;;;31.38;13.63;;;;;;;-4.27;100.00;102820.09;4974493;28;20105;-72
2021/12/21 08:10:49;;;;;;;24.27;12.07;;;;;;;-4.34;100.00;102820.53;4971222;28;20085;-72
2021/12/21 08:13:17;;;;;;;25.27;13.57;;;;;;;-4.37;100.00;102829.06;4971754;28;20591;-72
2021/12/21 08:15:47;;;;;;;23.85;10.95;;;;;;;-4.34;100.00;102830.97;4971484;28;20050;-72
2021/12/21 08:18:15;;;;;;;20.27;12.70;;;;;;;-4.22;100.00;102831.72;4969138;28;20081;-73
2021/12/21 08:20:43;;;;;;;24.25;12.55;;;;;;;-4.31;100.00;102828.53;4968899;28;20050;-72
2021/12/21 08:23:11;;;;;;;21.98;12.32;;;;;;;-4.28;100.00;102831.31;4972136;28;20082;-72
2021/12/21 08:25:40;;;;;;;24.15;13.60;;;;;;;-4.21;100.00;102832.59;4972337;28;20102;-72
2021/12/21 08:28:09;;;;;;;27.52;13.48;;;;;;;-4.23;100.00;102844.66;4972155;28;20379;-73
2021/12/21 08:30:37;;;;;;;27.45;13.55;;;;;;;-4.23;100.00;102849.88;4970909;28;20207;-73
2021/12/21 08:33:05;;;;;;;23.65;13.35;;;;;;;-4.15;100.00;102848.63;4969766;28;20039;-74
2021/12/21 08:35:34;;;;;;;30.95;13.23;;;;;;;-4.20;100.00;102844.84;4971815;28;20065;-73
2021/12/21 08:38:04;;;;;;;30.10;14.48;;;;;;;-4.17;100.00;102858.03;4972458;28;20054;-73
2021/12/21 08:40:39;;;;;;;22.27;12.57;;;;;;;-4.17;100.00;102858.03;4974973;28;20066;-73
2021/12/21 08:43:10;;;;;;;30.35;13.35;;;;;;;-4.17;100.00;102856.34;4971587;28;20160;-73
2021/12/21 08:45:40;;;;;;;23.73;12.68;;;;;;;-4.00;100.00;102852.16;4971946;28;20145;-75
2021/12/21 08:48:09;;;;;;;32.13;13.48;;;;;;;-4.00;100.00;102843.41;4969251;28;20141;-73
2021/12/21 08:50:38;;;;;;;28.00;14.75;;;;;;;-3.87;100.00;102852.88;4973086;28;20141;-74
2021/12/21 08:53:08;;;;;;;26.75;16.58;;;;;;;-3.79;100.00;102847.28;4971988;28;20081;-73
2021/12/21 08:55:36;;;;;;;26.02;15.07;;;;;;;-3.68;100.00;102839.19;4970290;28;20055;-74
2021/12/21 08:58:04;;;;;;;37.72;17.75;;;;;;;-3.58;100.00;102825.84;4969430;28;20058;-73
2021/12/21 09:00:33;;;;;;;32.28;15.52;;;;;;;-3.54;100.00;102824.31;4969195;28;20510;-73
2021/12/21 09:03:01;;;;;;;38.65;15.30;;;;;;;-3.40;100.00;102823.41;4969319;28;20054;-73
2021/12/21 09:05:31;;;;;;;27.45;16.15;;;;;;;-3.31;100.00;102823.91;4972760;28;20209;-73
2021/12/21 09:08:01;;;;;;;29.35;15.65;;;;;;;-3.24;100.00;102830.38;4971942;28;20058;-74
2021/12/21 09:10:30;;;;;;;39.88;16.48;;;;;;;-3.07;100.00;102828.72;4969665;28;20050;-73
2021/12/21 09:13:00;;;;;;;33.72;16.13;;;;;;;-3.07;100.00;102826.13;4970703;28;20558;-73
2021/12/21 09:15:29;;;;;;;25.15;15.02;;;;;;;-2.92;100.00;102833.91;4972758;28;20058;-72
2021/12/21 09:17:59;;;;;;;29.08;14.50;;;;;;;-2.89;100.00;102837.59;4971026;28;20113;-72
2021/12/21 09:20:29;;;;;;;32.60;16.80;;;;;;;-2.73;100.00;102844.53;4970667;28;20050;-73
2021/12/21 09:22:57;;;;;;;32.65;17.00;;;;;;;-2.63;100.00;102835.50;4968479;28;20058;-73
2021/12/21 09:25:27;;;;;;;30.10;15.45;;;;;;;-2.51;100.00;102837.88;4968761;28;20046;-73
2021/12/21 09:27:56;;;;;;;26.73;17.25;;;;;;;-2.40;100.00;102833.19;4973444;28;20050;-72
2021/12/21 09:30:27;;;;;;;30.27;16.50;;;;;;;-2.22;100.00;102835.88;4968191;28;20058;-73
2021/12/21 09:32:56;;;;;;;30.30;17.75;;;;;;;-2.14;100.00;102824.13;4970329;28;20479;-74
2021/12/21 09:35:26;;;;;;;29.30;17.65;;;;;;;-2.07;100.00;102827.09;4970063;28;20109;-72
2021/12/21 09:37:54;;;;;;;35.40;15.63;;;;;;;-2.01;100.00;102831.78;4971212;28;20480;-72
2021/12/21 09:40:27;;;;;;;35.22;17.40;;;;;;;-1.94;100.00;102832.97;4969085;28;20098;-72
2021/12/21 09:42:57;;;;;;;29.00;17.02;;;;;;;-1.93;100.00;102825.19;4970972;28;20062;-73
2021/12/21 09:45:25;;;;;;;25.40;15.40;;;;;;;-1.82;100.00;102807.44;4969579;28;20088;-73
2021/12/21 09:47:52;;;;;;;32.17;17.05;;;;;;;-1.75;100.00;102806.03;4972826;28;20150;-73
2021/12/21 09:50:22;;;;;;;32.13;17.23;;;;;;;-1.70;100.00;102812.38;4970662;28;20058;-73
2021/12/21 09:52:51;;;;;;;26.45;16.58;;;;;;;-1.67;100.00;102812.50;4970714;28;20154;-73
2021/12/21 09:55:19;;;;;;;35.45;17.67;;;;;;;-1.63;100.00;102803.13;4969049;28;20149;-72
2021/12/21 09:57:48;;;;;;;30.92;17.27;;;;;;;-1.57;100.00;102814.75;4971682;28;20059;-73
2021/12/21 10:00:18;;;;;;;31.42;18.35;;;;;;;-1.54;100.00;102817.53;4969164;28;20232;-73
2021/12/21 10:02:46;;;;;;;36.33;18.83;;;;;;;-1.46;100.00;102819.63;4970770;28;20047;-75
2021/12/21 10:05:19;;;;;;;30.00;16.02;;;;;;;-1.41;100.00;102820.78;4967750;28;20058;-74
2021/12/21 10:07:58;;;;;;;40.33;19.30;;;;;;;-1.36;100.00;102822.78;4967183;28;20781;-75
2021/12/21 10:10:26;;;;;;;29.92;17.35;;;;;;;-1.32;100.00;102826.47;4970510;28;20088;-74
2021/12/21 10:12:54;;;;;;;30.20;16.15;;;;;;;-1.26;100.00;102829.38;4969588;28;20054;-73
2021/12/21 10:15:26;;;;;;;28.88;17.70;;;;;;;-1.16;100.00;102835.94;4969473;28;20093;-75
2021/12/21 10:17:57;;;;;;;35.65;17.73;;;;;;;-1.05;100.00;102832.13;4967718;28;20054;-75
2021/12/21 10:20:34;;;;;;;32.60;17.15;;;;;;;-0.98;100.00;102822.81;4970486;28;20065;-74
2021/12/21 10:23:11;;;;;;;36.47;18.13;;;;;;;-0.84;100.00;102816.50;4968076;28;20050;-74
2021/12/21 10:25:45;;;;;;;28.33;17.40;;;;;;;-0.70;100.00;102821.47;4972424;28;20086;-74
2021/12/21 10:28:25;;;;;;;32.13;16.65;;;;;;;-0.53;100.00;102822.25;4966849;28;20070;-74
2021/12/21 10:30:54;;;;;;;28.35;15.68;;;;;;;-0.42;100.00;102816.66;4971322;28;20088;-74
2021/12/21 10:33:23;;;;;;;28.63;15.23;;;;;;;-0.35;100.00;102801.19;4967859;28;20074;-74
2021/12/21 10:35:52;;;;;;;39.80;14.32;;;;;;;-0.21;100.00;102797.44;4970123;28;20063;-74
2021/12/21 10:38:32;;;;;;;24.60;14.13;;;;;;;-0.08;100.00;102797.16;4968391;28;20050;-75
2021/12/21 10:41:09;;;;;;;28.77;14.35;;;;;;;-0.05;100.00;102781.53;4969116;28;20594;-75
2021/12/21 10:43:39;;;;;;;26.33;14.93;;;;;;;0.07;100.00;102780.25;4970756;28;20129;-75
2021/12/21 10:46:07;;;;;;;20.98;13.57;;;;;;;0.14;100.00;102783.22;4969740;28;20064;-75
2021/12/21 10:48:37;;;;;;;22.45;13.60;;;;;;;0.16;100.00;102780.66;4969104;28;20108;-75
2021/12/21 10:51:11;;;;;;;19.08;11.93;;;;;;;0.23;100.00;102780.06;4972569;28;20051;-75
2021/12/21 10:53:46;;;;;;;23.98;12.60;;;;;;;0.34;100.00;102776.16;4968730;28;20058;-75
2021/12/21 10:56:17;;;;;;;22.60;11.73;;;;;;;0.43;100.00;102783.50;4972045;28;20057;-75
2021/12/21 10:58:46;;;;;;;24.63;12.05;;;;;;;0.42;100.00;102778.19;4967906;28;20063;-75
2021/12/21 11:01:26;;;;;;;25.30;12.80;;;;;;;0.54;100.00;102776.94;4969939;28;20069;-74
2021/12/21 11:03:56;;;;;;;21.23;10.63;;;;;;;0.58;100.00;102783.25;4969729;28;20058;-75
2021/12/21 11:06:30;;;;;;;22.20;11.55;;;;;;;0.58;100.00;102785.88;4969196;28;20705;-75
2021/12/21 11:09:04;;;;;;;20.90;10.70;;;;;;;0.76;100.00;102779.53;4966313;28;20058;-76
2021/12/21 11:11:42;;;;;;;24.08;11.70;;;;;;;0.85;100.00;102779.91;4968323;28;20601;-76
2021/12/21 11:14:13;;;;;;;18.83;10.60;;;;;;;0.99;100.00;102785.69;4964281;28;20061;-76
2021/12/21 11:16:43;;;;;;;17.23;9.80;;;;;;;1.00;100.00;102782.22;4968525;28;20069;-75
2021/12/21 11:19:13;;;;;;;17.45;9.70;;;;;;;1.00;100.00;102774.34;4967802;28;20054;-76
2021/12/21 11:21:42;;;;;;;20.05;11.63;;;;;;;1.10;100.00;102768.59;4968553;28;20050;-76
2021/12/21 11:24:14;;;;;;;15.68;10.07;;;;;;;1.12;100.00;102769.53;4966720;28;20523;-75
2021/12/21 11:26:43;;;;;;;17.42;9.43;;;;;;;1.27;100.00;102763.97;4970064;28;20177;-76
2021/12/21 11:29:15;;;;;;;17.92;10.25;;;;;;;1.30;100.00;102762.34;4969205;28;20545;-75
2021/12/21 11:31:46;;;;;;;21.52;10.43;;;;;;;1.33;100.00;102769.47;4968911;28;20109;-74
2021/12/21 11:34:20;;;;;;;18.33;11.00;;;;;;;1.34;100.00;102771.22;4972267;28;20078;-75
2021/12/21 11:39:38;;;;;;;19.33;10.73;;;;;;;1.55;100.00;102752.72;4971340;28;20082;-75
2021/12/21 11:42:10;;;;;;;22.08;10.98;;;;;;;1.71;100.00;102750.63;4973147;28;20075;-75
2021/12/21 11:44:51;;;;;;;15.77;10.07;;;;;;;1.80;100.00;102749.19;4973346;28;20046;-75
2021/12/21 11:47:31;;;;;;;18.23;11.18;;;;;;;1.78;100.00;102732.44;4973067;28;20554;-75
2021/12/21 11:50:04;;;;;;;18.42;9.60;;;;;;;1.80;100.00;102728.13;4972679;28;20097;-75